Latest Weather Observations for Tasman Island

IDT60801

Issued at 2:05 am EDT Wednesday 22 October 2014 (issued every 30 minutes, with the page automatically refreshed every 10 minutes)

About weather observations | Map of weather stations | Latest weather observations for TAS | Other Formats
Station Details ID: 094155 Name: TASMAN ISLAND Lat: -43.24 Lon: 148.00 Height: 240.0 m
Data from the previous 72 hours. | See also: Recent months at Tasman Island
Date/Time
EDT
Temp
°C
App
Temp
°C
Dew
Point
Rel
Hum
%
Delta-T
°C
Wind Press
QNH
hPa
Press
MSL
hPa
Rain
since 9 am
mm
Dir
 
Spd
km/h
Gust
km/h
Spd
kts
Gust
kts
22/02:00am 10.6 -0.6 7.7 82 1.4 N 56 72 30 39 1022.7 1023.0 0.0
22/01:31am 10.8 0.1 7.9 82 1.4 N 54 72 29 39 1023.3 1023.5 0.0
22/01:30am 10.8 0.1 7.9 82 1.4 N 54 70 29 38 1023.3 1023.5 0.0
22/01:00am 10.8 0.4 7.9 82 1.4 N 52 65 28 35 1024.0 1024.2 0.0
22/12:30am 10.9 0.6 8.1 83 1.4 N 52 63 28 34 1024.4 1024.6 0.0
22/12:00am 10.8 0.9 8.4 85 1.2 N 50 61 27 33 1025.3 1025.5 0.0
 
Date/Time
EDT
Temp
°C
App
Temp
°C
Dew
Point
Rel
Hum
%
Delta-T
°C
Wind Press
QNH
hPa
Press
MSL
hPa
Rain
since 9 am
mm
Dir
 
Spd
km/h
Gust
km/h
Spd
kts
Gust
kts
21/11:30pm 10.9 1.9 8.7 86 1.1 N 46 59 25 32 1025.6 1025.8 0.0
21/11:00pm 10.8 2.9 8.0 83 1.4 N 39 48 21 26 1026.0 1026.3 0.0
21/10:30pm 10.8 2.8 8.9 88 1.0 N 41 52 22 28 1026.3 1026.6 0.0
21/10:00pm 10.8 2.4 8.9 88 0.9 N 43 59 23 32 1026.7 1027.0 0.0
21/09:30pm 10.7 2.2 8.6 87 1.0 N 43 61 23 33 1027.0 1027.3 0.0
21/09:12pm 10.7 2.2 8.6 87 1.0 NNE 43 65 23 35 1027.2 1027.5 0.0
21/09:00pm 10.7 2.0 8.5 86 1.1 NNE 44 61 24 33 1027.2 1027.5 0.0
21/08:30pm 10.8 2.0 8.2 84 1.3 NNE 44 63 24 34 1027.3 1027.6 0.0
21/08:15pm 10.8 2.0 8.0 83 1.4 NNE 44 63 24 34 1027.4 1027.7 0.0
21/08:00pm 10.7 1.9 8.1 84 1.3 NNE 44 59 24 32 1027.4 1027.7 0.0
21/07:30pm 10.6 1.8 8.0 84 1.3 NNE 44 61 24 33 1027.8 1028.0 0.0
21/07:20pm 10.6 2.4 8.0 84 1.3 NNE 41 61 22 33 1027.9 1028.1 0.0
21/07:00pm 10.7 1.5 7.8 82 1.4 NNE 46 59 25 32 1027.8 1028.0 0.0
21/06:30pm 10.9 2.1 8.0 82 1.4 NNE 44 56 24 30 1028.2 1028.4 0.0
21/06:00pm 11.0 2.6 7.5 79 1.7 NNE 41 56 22 30 1028.4 1028.6 0.0
21/05:30pm 11.3 3.2 7.2 76 2.0 NNE 39 57 21 31 1028.8 1029.0 0.0
21/05:00pm 11.5 2.6 6.8 73 2.2 NNE 43 54 23 29 1028.6 1028.8 0.0
21/04:30pm 11.6 3.0 6.7 72 2.4 NNE 41 54 22 29 1029.0 1029.2 0.0
21/04:00pm 11.9 3.3 6.6 70 2.5 NNE 41 54 22 29 1029.4 1029.6 0.0
21/03:30pm 11.9 3.5 5.8 66 2.9 NNE 39 54 21 29 1029.8 1030.1 0.0
21/03:24pm 11.9 3.9 5.8 66 2.9 NNE 37 57 20 31 1029.9 1030.2 0.0
21/03:00pm 12.1 4.1 5.9 66 2.9 NNE 37 56 20 30 1030.3 1030.6 0.0
21/02:30pm 12.2 5.1 5.6 64 3.1 NNE 32 50 17 27 1030.9 1031.2 0.0
21/02:24pm 11.7 4.5 4.9 63 3.1 NNE 32 50 17 27 1031.0 1031.3 0.0
21/02:00pm 12.0 4.3 5.4 64 3.1 NNE 35 48 19 26 1031.2 1031.5 0.0
21/01:33pm 11.9 4.2 5.3 64 3.1 NNE 35 54 19 29 1031.4 1031.7 0.0
21/01:30pm 11.9 3.8 5.1 63 3.1 NNE 37 54 20 29 1031.5 1031.8 0.0
21/01:00pm 12.1 4.3 5.0 62 3.3 NNE 35 48 19 26 1031.8 1032.1 0.0
21/12:30pm 11.9 4.4 4.6 61 3.4 NNE 33 46 18 25 1032.2 1032.4 0.0
21/12:00pm 12.4 5.1 5.3 62 3.3 N 33 44 18 24 1032.3 1032.5 0.0
21/11:30am 11.9 3.9 3.9 58 3.6 N 35 48 19 26 1032.5 1032.7 0.0
21/11:00am 11.7 3.7 4.0 59 3.5 N 35 48 19 26 1032.9 1033.1 0.0
21/10:30am 12.2 6.1 4.9 61 3.4 N 26 35 14 19 1033.3 1033.6 0.0
21/10:00am 12.1 7.3 5.7 65 3.0 N 20 28 11 15 1033.4 1033.7 0.0
21/09:30am 11.3 5.9 4.7 64 3.0 N 22 30 12 16 1033.3 1033.6 0.0
21/09:00am 10.6 5.1 4.1 64 2.9 N 22 35 12 19 1033.4 1033.7 0.0
21/08:30am 10.0 3.5 4.6 69 2.4 N 28 39 15 21 1033.3 1033.6 0.0
21/08:00am 9.5 2.6 4.5 71 2.2 N 30 37 16 20 1033.2 1033.5 0.0
21/07:30am 8.8 2.6 4.4 74 2.0 N 26 33 14 18 1033.2 1033.5 0.0
21/07:00am 8.3 1.6 3.8 73 2.0 N 28 35 15 19 1033.1 1033.4 0.0
21/06:30am 7.9 1.9 3.6 74 1.8 N 24 37 13 20 1033.1 1033.4 0.0
21/06:00am 7.8 1.5 3.5 74 1.8 N 26 35 14 19 1032.9 1033.1 0.0
21/05:30am 7.8 2.7 4.0 77 1.7 N 20 26 11 14 1032.9 1033.1 0.0
21/05:00am 7.7 2.8 3.9 77 1.6 N 19 26 10 14 1032.7 1032.9 0.0
21/04:30am 7.8 2.9 4.0 77 1.7 N 19 28 10 15 1032.6 1032.8 0.0
21/04:00am 7.7 2.5 3.7 76 1.7 NNE 20 28 11 15 1032.7 1032.9 0.0
21/03:30am 7.1 3.2 3.5 78 1.5 N 13 19 7 10 1032.9 1033.1 0.0
21/03:00am 7.5 4.1 3.9 78 1.6 N 11 15 6 8 1033.1 1033.4 0.0
21/02:30am 7.7 4.3 3.9 77 1.7 N 11 15 6 8 1033.2 1033.5 0.0
21/02:00am 7.7 4.6 3.7 76 1.7 N 9 13 5 7 1033.4 1033.7 0.0
21/01:30am 7.8 4.7 3.5 74 1.9 N 9 13 5 7 1033.6 1033.9 0.0
21/01:00am 7.9 4.8 3.4 73 1.9 NNE 9 13 5 7 1033.8 1034.1 0.0
21/12:30am 7.8 5.0 3.1 72 2.0 NE 7 11 4 6 1034.1 1034.4 0.0
21/12:00am 7.8 6.3 2.9 71 2.1 CALM 0 2 0 1 1034.5 1034.8 0.0
 
Date/Time
EDT
Temp
°C
App
Temp
°C
Dew
Point
Rel
Hum
%
Delta-T
°C
Wind Press
QNH
hPa
Press
MSL
hPa
Rain
since 9 am
mm
Dir
 
Spd
km/h
Gust
km/h
Spd
kts
Gust
kts
20/11:30pm 8.0 6.1 2.9 70 2.2 ENE 2 4 1 2 1034.7 1035.0 0.0
20/11:00pm 7.9 6.4 2.8 70 2.2 CALM 0 2 0 1 1034.9 1035.2 0.0
20/10:30pm 7.9 5.3 3.2 72 2.0 SSW 6 7 3 4 1035.1 1035.4 0.0
20/10:00pm 7.9 5.1 3.0 71 2.1 SSW 7 13 4 7 1034.9 1035.2 0.0
20/09:30pm 7.9 4.7 3.0 71 2.1 SSW 9 15 5 8 1035.0 1035.3 0.0
20/09:00pm 7.8 4.6 2.9 71 2.1 SSW 9 15 5 8 1034.8 1035.1 0.0
20/08:30pm 7.7 4.1 2.8 71 2.1 SSW 11 19 6 10 1034.6 1034.9 0.0
20/08:00pm 7.7 2.9 2.8 71 2.1 SSW 17 22 9 12 1034.4 1034.7 0.0
20/07:30pm 7.6 2.8 2.7 71 2.1 SSW 17 26 9 14 1034.1 1034.4 0.0
20/07:00pm 7.9 3.5 2.8 70 2.2 SSW 15 24 8 13 1033.8 1034.1 0.0
20/06:30pm 8.4 3.6 2.8 68 2.4 SSW 17 24 9 13 1033.7 1034.0 0.0
20/06:00pm 9.2 4.9 3.4 67 2.5 SSW 15 24 8 13 1033.6 1033.9 0.0
20/05:30pm 9.5 4.2 2.1 60 3.2 SSW 19 30 10 16 1033.6 1033.9 0.0
20/05:00pm 9.8 4.9 1.9 58 3.3 SSW 17 26 9 14 1033.4 1033.7 0.0
20/04:30pm 10.5 5.0 1.6 54 3.8 SW 20 30 11 16 1033.2 1033.5 0.0
20/04:00pm 10.3 4.7 1.4 54 3.7 SW 20 28 11 15 1033.3 1033.6 0.0
20/03:30pm 10.0 4.6 2.4 59 3.3 SW 20 32 11 17 1033.5 1033.8 0.0
20/03:00pm 9.8 4.3 1.9 58 3.3 SW 20 30 11 16 1033.5 1033.8 0.0
20/02:30pm 10.5 5.2 1.9 55 3.7 SSW 19 35 10 19 1033.5 1033.8 0.0
20/02:00pm 10.5 4.8 2.8 59 3.3 SW 22 35 12 19 1033.6 1033.9 0.0
20/01:30pm 9.9 2.9 2.0 58 3.4 SW 28 43 15 23 1033.3 1033.6 0.0
20/01:00pm 10.2 4.4 2.3 58 3.4 SW 22 33 12 18 1033.7 1034.0 0.0
20/12:30pm 9.5 4.8 1.2 56 3.5 WSW 15 26 8 14 1033.5 1033.8 0.0
20/12:00pm 9.9 4.4 0.5 52 3.8 SW 19 35 10 19 1033.4 1033.7 0.0
20/11:30am 10.2 4.2 1.3 54 3.7 SW 22 33 12 18 1033.4 1033.7 0.0
20/11:00am 9.6 5.7 1.0 55 3.5 W 11 28 6 15 1033.4 1033.7 0.0
20/10:30am 10.4 4.4 1.0 52 3.9 SSW 22 37 12 20 1033.2 1033.5 0.0
20/10:00am 9.2 1.8 -0.9 49 4.0 SW 28 39 15 21 1033.0 1033.3 0.0
20/09:30am 8.1 2.7 1.0 61 2.9 SW 19 35 10 19 1032.8 1033.0 0.0
20/09:00am 8.0 1.0 -0.5 55 3.3 SW 26 44 14 24 1032.3 1032.5 1.6
20/08:38am 7.7 0.7 1.8 66 2.5 SSW 28 48 15 26 1032.0 1032.2 1.6
20/08:30am 8.0 1.7 1.6 64 2.7 SW 24 39 13 21 1031.8 1032.1 1.6
20/08:00am 7.5 1.4 0.3 60 2.9 SSW 22 41 12 22 1031.4 1031.7 1.6
20/07:30am 7.4 0.3 1.5 66 2.4 SSW 28 44 15 24 1031.1 1031.4 1.6
20/07:04am 7.1 -0.5 0.3 62 2.7 SSW 30 48 16 26 1030.7 1031.0 1.6
20/07:00am 7.1 -0.9 0.3 62 2.7 SW 32 48 17 26 1030.7 1031.0 1.6
20/06:54am 7.0 -0.7 0.2 62 2.7 SSW 30 48 16 26 1030.6 1030.9 1.6
20/06:30am 6.5 -0.3 1.0 68 2.2 SSW 26 54 14 29 1030.4 1030.7 1.6
20/06:16am 6.5 -0.6 1.4 70 2.1 SSW 28 48 15 26 1030.0 1030.3 1.6
20/06:00am 7.1 -0.2 -0.1 60 2.8 SSW 28 44 15 24 1029.6 1029.9 1.6
20/05:30am 6.9 -1.2 -0.5 59 2.9 SSW 32 50 17 27 1029.2 1029.4 1.6
20/05:00am 6.6 -1.2 -0.8 59 2.8 SSW 30 48 16 26 1028.8 1029.0 1.6
20/04:30am 6.3 -2.2 -3.6 49 3.5 SSW 32 57 17 31 1028.3 1028.5 1.6
20/04:00am 6.5 -2.3 -1.2 58 2.9 SSW 35 61 19 33 1027.7 1027.9 1.6
20/03:30am 6.5 -3.8 -3.7 48 3.7 SSW 41 72 22 39 1027.1 1027.4 1.6
20/03:29am 6.5 -3.7 -2.9 51 3.4 SSW 41 72 22 39 1027.1 1027.4 1.6
20/03:16am 6.3 -1.2 1.4 71 2.0 SSW 30 50 16 27 1027.2 1027.5 1.6
20/03:00am 6.3 -3.4 0.8 68 2.2 SSW 41 56 22 30 1026.9 1027.2 1.6
20/02:30am 6.8 -2.0 -1.3 56 3.1 SSW 35 57 19 31 1026.4 1026.7 1.6
20/02:00am 7.0 -2.1 -0.7 58 3.0 SSW 37 57 20 31 1026.1 1026.4 1.6
20/01:30am 6.9 -2.6 -1.0 57 3.0 SSW 39 69 21 37 1025.9 1026.1 1.6
20/01:00am 6.8 -2.4 -1.1 57 3.0 SSW 37 67 20 36 1025.7 1025.9 1.6
20/12:30am 6.6 -3.0 -1.5 56 3.1 SSW 39 67 21 36 1025.4 1025.6 1.6
20/12:00am 6.0 -4.6 0.8 69 2.1 SSW 46 80 25 43 1024.7 1024.9 1.6
 
Date/Time
EDT
Temp
°C
App
Temp
°C
Dew
Point
Rel
Hum
%
Delta-T
°C
Wind Press
QNH
hPa
Press
MSL
hPa
Rain
since 9 am
mm
Dir
 
Spd
km/h
Gust
km/h
Spd
kts
Gust
kts
19/11:30pm 7.0 -4.7 -1.7 54 3.3 SW 50 76 27 41 1024.5 1024.7 1.6
19/11:00pm 6.7 -4.3 1.0 67 2.3 SW 48 72 26 39 1023.9 1024.1 1.6
19/10:30pm 5.1 -5.3 1.9 80 1.3 SW 46 93 25 50 1023.6 1023.8 1.6
19/10:22pm 6.6 -3.9 1.7 71 2.0 SW 46 93 25 50 1023.2 1023.4 1.6
19/10:00pm 6.2 -3.2 2.3 76 1.6 SSW 41 61 22 33 1023.2 1023.4 1.6
19/09:30pm 7.4 -4.8 0.2 60 2.9 SW 54 76 29 41 1022.2 1022.4 1.6
19/09:00pm 7.7 -2.6 2.4 69 2.2 SSW 46 70 25 38 1021.7 1021.9 1.6
19/08:30pm 7.7 -2.9 3.0 72 2.0 SSW 48 72 26 39 1020.9 1021.1 1.6
19/08:00pm 6.2 -3.2 4.7 90 0.7 SW 43 61 23 33 1020.5 1020.7 1.6
19/07:30pm 6.0 -4.3 4.6 91 0.6 SW 48 76 26 41 1019.8 1020.0 1.4
19/07:00pm 7.3 0.7 5.9 91 0.6 SW 30 65 16 35 1018.7 1018.9 1.2
19/06:30pm 7.1 -1.9 6.2 94 0.4 SSW 43 78 23 42 1017.5 1017.7 1.0
19/06:00pm 7.3 -1.8 5.9 91 0.6 SW 43 67 23 36 1017.0 1017.2 0.6
19/05:47pm 7.5 -3.3 6.0 90 0.7 SW 52 72 28 39 1017.1 1017.3 0.4
19/05:45pm 7.5 -4.1 5.8 89 0.8 SW 56 72 30 39 1017.1 1017.3 0.4
19/05:30pm 7.8 1.3 6.3 90 0.7 SW 30 57 16 31 1017.0 1017.2 0.4
19/05:05pm 7.9 1.8 6.5 91 0.7 SW 28 56 15 30 1016.7 1016.9 0.4
19/05:00pm 7.9 2.2 6.5 91 0.7 SW 26 56 14 30 1016.7 1016.9 0.4
19/04:30pm 7.9 0.9 6.7 92 0.6 SW 33 70 18 38 1016.2 1016.4 0.4
19/04:00pm 8.1 1.6 6.7 91 0.7 SW 30 61 16 33 1016.2 1016.4 0.0
19/03:30pm 8.5 0.7 6.6 88 0.9 SW 37 65 20 35 1015.7 1015.9 0.0
19/03:16pm 8.6 2.1 6.4 86 1.0 SW 30 52 16 28 1015.9 1016.1 0.0
19/03:00pm 8.8 -2.7 6.1 83 1.3 SW 56 78 30 42 1015.9 1016.1 0.0
19/02:59pm 8.8 -2.7 6.1 83 1.3 SW 56 78 30 42 1015.8 1016.0 0.0
19/02:47pm 9.0 2.1 6.6 85 1.1 SSW 32 67 17 36 1016.1 1016.3 0.0
19/02:42pm 9.0 -2.5 6.3 83 1.3 SW 56 76 30 41 1015.9 1016.1 0.0
19/02:34pm 9.3 2.4 6.4 82 1.4 SSW 32 74 17 40 1015.7 1015.9 0.0
19/02:30pm 9.5 3.3 6.2 80 1.5 S 28 52 15 28 1015.8 1016.0 0.0
19/02:00pm 9.2 -0.9 7.5 89 0.8 SW 50 78 27 42 1015.5 1015.7 0.0
19/01:30pm 9.8 0.6 8.1 89 0.8 SW 46 72 25 39 1015.1 1015.2 0.0
19/01:00pm 10.8 3.5 8.6 86 1.1 SW 37 72 20 39 1015.1 1015.2 0.0
19/12:30pm 11.3 5.5 9.4 88 1.0 SSW 30 57 16 31 1014.7 1014.8 0.0
19/12:00pm 11.5 4.2 8.7 83 1.4 SW 37 65 20 35 1014.9 1015.0 0.0
19/11:58am 12.2 5.4 9.4 83 1.4 SW 35 61 19 33 1014.9 1015.0 0.0
19/11:53am 12.3 5.5 9.3 82 1.5 SSW 35 52 19 28 1015.2 1015.3 0.0
19/11:30am 13.8 10.8 10.6 81 1.7 WSW 17 30 9 16 1015.2 1015.3 0.0
19/11:00am 13.6 13.1 10.6 82 1.6 N 4 13 2 7 1015.5 1015.7 0.0
19/10:30am 12.8 11.7 10.5 86 1.2 WSW 7 15 4 8 1015.3 1015.4 0.0
19/10:00am 12.4 9.6 10.1 86 1.2 W 15 22 8 12 1015.3 1015.4 0.0
19/09:30am 12.4 10.5 10.6 89 0.9 W 11 22 6 12 1015.2 1015.3 0.0
19/09:00am 11.8 9.9 10.5 92 0.7 S 11 35 6 19 1014.8 1014.9 0.0
19/08:30am 12.0 9.7 10.4 90 0.8 W 13 20 7 11 1014.6 1014.7 0.0
19/08:00am 11.9 8.2 9.6 86 1.2 SSW 19 37 10 20 1014.7 1014.8 0.0
19/07:30am 15.1 11.7 6.1 55 4.4 W 13 30 7 16 1014.0 1014.2 0.0
19/07:00am 15.5 10.9 5.4 51 4.9 WNW 19 35 10 19 1013.1 1013.3 0.0
19/06:30am 15.4 8.7 5.6 52 4.7 NW 30 43 16 23 1012.5 1012.7 0.0
19/06:00am 13.8 8.1 6.7 62 3.5 NNW 26 41 14 22 1012.1 1012.3 0.0
19/05:30am 13.3 6.9 7.1 66 3.0 N 30 44 16 24 1011.4 1011.5 0.0
19/05:00am 14.0 5.8 6.4 60 3.7 N 39 67 21 36 1011.5 1011.6 0.0
19/04:30am 15.2 5.9 5.1 51 4.8 N 43 65 23 35 1011.7 1011.8 0.0
19/04:00am 16.4 6.4 4.4 45 5.7 NNW 46 69 25 37 1012.1 1012.3 0.0
19/03:30am 16.6 6.1 3.7 42 6.1 NNW 48 67 26 36 1012.3 1012.5 0.0
19/03:00am 16.9 5.8 2.5 38 6.6 NNW 50 78 27 42 1012.7 1012.9 0.0
19/02:30am 16.9 4.9 1.8 36 6.8 NNW 54 82 29 44 1012.6 1012.8 0.0

Other Formats:

Comma delimited format used in spreadsheet applications
http://www.bom.gov.au/fwo/IDT60801/IDT60801.95986.axf

JavaScript Object Notation format (JSON) in row-major order
http://www.bom.gov.au/fwo/IDT60801/IDT60801.95986.json